sensor_id;sensor_type;location;lat;lon;timestamp;P1;durP1;ratioP1;P2;durP2;ratioP2
45420;SDS011;55462;47.042;8.292;2022-10-18T00:00:43;5.40;;;3.30;;
45420;SDS011;55462;47.042;8.292;2022-10-18T00:03:08;3.25;;;2.85;;
45420;SDS011;55462;47.042;8.292;2022-10-18T00:05:33;6.13;;;3.05;;
45420;SDS011;55462;47.042;8.292;2022-10-18T00:07:59;3.50;;;3.08;;
45420;SDS011;55462;47.042;8.292;2022-10-18T00:10:24;4.10;;;3.50;;
45420;SDS011;55462;47.042;8.292;2022-10-18T00:12:50;11.32;;;3.10;;
45420;SDS011;55462;47.042;8.292;2022-10-18T00:15:15;7.38;;;3.03;;
45420;SDS011;55462;47.042;8.292;2022-10-18T00:17:41;4.78;;;2.47;;
45420;SDS011;55462;47.042;8.292;2022-10-18T00:20:07;5.30;;;2.58;;
45420;SDS011;55462;47.042;8.292;2022-10-18T00:22:33;12.27;;;3.05;;
45420;SDS011;55462;47.042;8.292;2022-10-18T00:25:00;3.25;;;2.50;;
45420;SDS011;55462;47.042;8.292;2022-10-18T00:27:27;5.85;;;2.90;;
45420;SDS011;55462;47.042;8.292;2022-10-18T00:29:53;6.72;;;2.88;;
45420;SDS011;55462;47.042;8.292;2022-10-18T00:32:18;7.18;;;3.20;;
45420;SDS011;55462;47.042;8.292;2022-10-18T00:34:44;3.38;;;2.92;;
45420;SDS011;55462;47.042;8.292;2022-10-18T00:37:10;5.30;;;3.20;;
45420;SDS011;55462;47.042;8.292;2022-10-18T00:39:35;7.72;;;3.03;;
45420;SDS011;55462;47.042;8.292;2022-10-18T00:42:00;4.35;;;3.13;;
45420;SDS011;55462;47.042;8.292;2022-10-18T00:46:54;6.72;;;3.10;;
45420;SDS011;55462;47.042;8.292;2022-10-18T00:51:49;3.65;;;2.70;;
45420;SDS011;55462;47.042;8.292;2022-10-18T00:54:25;8.05;;;3.10;;
45420;SDS011;55462;47.042;8.292;2022-10-18T00:56:52;4.20;;;3.25;;
45420;SDS011;55462;47.042;8.292;2022-10-18T00:59:18;3.15;;;2.90;;
45420;SDS011;55462;47.042;8.292;2022-10-18T01:01:43;7.07;;;2.85;;
45420;SDS011;55462;47.042;8.292;2022-10-18T01:04:10;3.92;;;3.00;;
45420;SDS011;55462;47.042;8.292;2022-10-18T01:15:15;5.20;;;3.15;;
45420;SDS011;55462;47.042;8.292;2022-10-18T01:32:42;7.28;;;3.40;;
45420;SDS011;55462;47.042;8.292;2022-10-18T01:35:12;5.53;;;3.22;;
45420;SDS011;55462;47.042;8.292;2022-10-18T01:37:40;5.53;;;2.90;;
45420;SDS011;55462;47.042;8.292;2022-10-18T01:40:07;4.70;;;3.13;;
45420;SDS011;55462;47.042;8.292;2022-10-18T01:42:33;3.45;;;3.15;;
45420;SDS011;55462;47.042;8.292;2022-10-18T01:44:59;5.55;;;2.85;;
45420;SDS011;55462;47.042;8.292;2022-10-18T01:47:25;4.05;;;2.88;;
45420;SDS011;55462;47.042;8.292;2022-10-18T01:49:57;5.97;;;3.25;;
45420;SDS011;55462;47.042;8.292;2022-10-18T01:52:27;3.78;;;2.65;;
45420;SDS011;55462;47.042;8.292;2022-10-18T01:54:52;7.75;;;3.40;;
45420;SDS011;55462;47.042;8.292;2022-10-18T01:57:21;9.13;;;2.92;;
45420;SDS011;55462;47.042;8.292;2022-10-18T02:00:03;7.22;;;3.38;;
45420;SDS011;55462;47.042;8.292;2022-10-18T02:10:23;9.77;;;3.10;;
45420;SDS011;55462;47.042;8.292;2022-10-18T02:12:54;5.15;;;3.50;;
45420;SDS011;55462;47.042;8.292;2022-10-18T02:15:22;10.23;;;3.45;;
45420;SDS011;55462;47.042;8.292;2022-10-18T02:17:53;9.15;;;3.35;;
45420;SDS011;55462;47.042;8.292;2022-10-18T02:20:20;8.05;;;4.00;;
45420;SDS011;55462;47.042;8.292;2022-10-18T02:22:47;5.78;;;3.50;;
45420;SDS011;55462;47.042;8.292;2022-10-18T02:25:16;6.55;;;3.65;;
45420;SDS011;55462;47.042;8.292;2022-10-18T02:27:44;4.65;;;3.38;;
45420;SDS011;55462;47.042;8.292;2022-10-18T02:30:10;4.50;;;3.22;;
45420;SDS011;55462;47.042;8.292;2022-10-18T02:35:18;7.43;;;3.38;;
45420;SDS011;55462;47.042;8.292;2022-10-18T02:37:46;9.57;;;3.33;;
45420;SDS011;55462;47.042;8.292;2022-10-18T02:40:13;5.57;;;3.50;;
45420;SDS011;55462;47.042;8.292;2022-10-18T02:42:43;6.10;;;3.67;;
45420;SDS011;55462;47.042;8.292;2022-10-18T02:45:12;6.50;;;3.35;;
45420;SDS011;55462;47.042;8.292;2022-10-18T02:47:39;4.35;;;3.20;;
45420;SDS011;55462;47.042;8.292;2022-10-18T02:50:04;3.88;;;3.28;;
45420;SDS011;55462;47.042;8.292;2022-10-18T02:52:30;3.72;;;3.00;;
45420;SDS011;55462;47.042;8.292;2022-10-18T02:54:55;3.05;;;2.75;;
45420;SDS011;55462;47.042;8.292;2022-10-18T02:57:20;5.70;;;3.30;;
45420;SDS011;55462;47.042;8.292;2022-10-18T02:59:45;9.38;;;3.60;;
45420;SDS011;55462;47.042;8.292;2022-10-18T03:02:11;6.53;;;3.13;;
45420;SDS011;55462;47.042;8.292;2022-10-18T03:04:36;8.00;;;3.10;;
45420;SDS011;55462;47.042;8.292;2022-10-18T03:07:02;4.28;;;3.30;;
45420;SDS011;55462;47.042;8.292;2022-10-18T03:09:27;4.15;;;2.97;;
45420;SDS011;55462;47.042;8.292;2022-10-18T03:11:52;3.95;;;2.90;;
45420;SDS011;55462;47.042;8.292;2022-10-18T03:14:18;12.15;;;3.50;;
45420;SDS011;55462;47.042;8.292;2022-10-18T03:16:43;3.05;;;2.85;;
45420;SDS011;55462;47.042;8.292;2022-10-18T03:19:08;3.13;;;2.88;;
45420;SDS011;55462;47.042;8.292;2022-10-18T03:21:34;3.35;;;3.05;;
45420;SDS011;55462;47.042;8.292;2022-10-18T03:23:59;4.32;;;3.10;;
45420;SDS011;55462;47.042;8.292;2022-10-18T03:26:24;4.07;;;2.95;;
45420;SDS011;55462;47.042;8.292;2022-10-18T03:28:50;3.70;;;3.35;;
45420;SDS011;55462;47.042;8.292;2022-10-18T03:31:15;3.60;;;3.30;;
45420;SDS011;55462;47.042;8.292;2022-10-18T03:33:41;4.82;;;2.90;;
45420;SDS011;55462;47.042;8.292;2022-10-18T03:36:06;3.72;;;2.80;;
45420;SDS011;55462;47.042;8.292;2022-10-18T03:38:31;2.70;;;2.60;;
45420;SDS011;55462;47.042;8.292;2022-10-18T03:40:57;4.50;;;3.08;;
45420;SDS011;55462;47.042;8.292;2022-10-18T03:43:22;3.00;;;2.80;;
45420;SDS011;55462;47.042;8.292;2022-10-18T03:45:48;4.30;;;2.80;;
45420;SDS011;55462;47.042;8.292;2022-10-18T03:48:13;4.35;;;3.00;;
45420;SDS011;55462;47.042;8.292;2022-10-18T03:50:38;6.70;;;2.45;;
45420;SDS011;55462;47.042;8.292;2022-10-18T03:53:03;6.13;;;2.70;;
45420;SDS011;55462;47.042;8.292;2022-10-18T03:55:29;4.43;;;2.80;;
45420;SDS011;55462;47.042;8.292;2022-10-18T03:57:54;3.42;;;3.13;;
45420;SDS011;55462;47.042;8.292;2022-10-18T04:00:19;7.82;;;3.20;;
45420;SDS011;55462;47.042;8.292;2022-10-18T04:02:45;3.08;;;2.78;;
45420;SDS011;55462;47.042;8.292;2022-10-18T04:05:10;8.35;;;3.30;;
45420;SDS011;55462;47.042;8.292;2022-10-18T04:07:36;9.10;;;2.88;;
45420;SDS011;55462;47.042;8.292;2022-10-18T04:10:02;5.10;;;2.50;;
45420;SDS011;55462;47.042;8.292;2022-10-18T04:12:27;3.05;;;2.60;;
45420;SDS011;55462;47.042;8.292;2022-10-18T04:14:53;8.45;;;2.70;;
45420;SDS011;55462;47.042;8.292;2022-10-18T04:17:18;6.03;;;2.95;;
45420;SDS011;55462;47.042;8.292;2022-10-18T04:19:43;5.82;;;2.75;;
45420;SDS011;55462;47.042;8.292;2022-10-18T04:22:09;8.93;;;3.25;;
45420;SDS011;55462;47.042;8.292;2022-10-18T04:24:36;4.65;;;2.70;;
45420;SDS011;55462;47.042;8.292;2022-10-18T04:27:02;3.03;;;2.67;;
45420;SDS011;55462;47.042;8.292;2022-10-18T04:29:28;7.13;;;2.78;;
45420;SDS011;55462;47.042;8.292;2022-10-18T04:31:54;5.03;;;2.90;;
45420;SDS011;55462;47.042;8.292;2022-10-18T04:34:19;5.35;;;2.60;;
45420;SDS011;55462;47.042;8.292;2022-10-18T04:36:44;5.97;;;2.78;;
45420;SDS011;55462;47.042;8.292;2022-10-18T04:39:10;6.90;;;3.60;;
45420;SDS011;55462;47.042;8.292;2022-10-18T04:41:35;4.18;;;2.63;;
45420;SDS011;55462;47.042;8.292;2022-10-18T04:44:00;3.40;;;2.72;;
45420;SDS011;55462;47.042;8.292;2022-10-18T04:46:26;4.18;;;2.85;;
45420;SDS011;55462;47.042;8.292;2022-10-18T04:48:51;4.60;;;3.05;;
45420;SDS011;55462;47.042;8.292;2022-10-18T04:51:16;5.28;;;2.97;;
45420;SDS011;55462;47.042;8.292;2022-10-18T04:53:41;6.40;;;3.17;;
45420;SDS011;55462;47.042;8.292;2022-10-18T04:56:07;5.72;;;3.20;;
45420;SDS011;55462;47.042;8.292;2022-10-18T04:58:32;3.60;;;3.22;;
45420;SDS011;55462;47.042;8.292;2022-10-18T05:00:58;7.80;;;3.13;;
45420;SDS011;55462;47.042;8.292;2022-10-18T05:03:23;5.88;;;3.15;;
45420;SDS011;55462;47.042;8.292;2022-10-18T05:05:48;3.22;;;3.03;;
45420;SDS011;55462;47.042;8.292;2022-10-18T05:08:14;3.30;;;3.00;;
45420;SDS011;55462;47.042;8.292;2022-10-18T05:10:39;3.08;;;2.88;;
45420;SDS011;55462;47.042;8.292;2022-10-18T05:13:05;4.30;;;2.85;;
45420;SDS011;55462;47.042;8.292;2022-10-18T05:15:31;7.93;;;3.10;;
45420;SDS011;55462;47.042;8.292;2022-10-18T05:17:56;4.18;;;2.50;;
45420;SDS011;55462;47.042;8.292;2022-10-18T05:20:21;4.90;;;3.17;;
45420;SDS011;55462;47.042;8.292;2022-10-18T05:22:47;5.15;;;3.15;;
45420;SDS011;55462;47.042;8.292;2022-10-18T05:25:12;7.60;;;2.90;;
45420;SDS011;55462;47.042;8.292;2022-10-18T05:27:38;5.43;;;2.70;;
45420;SDS011;55462;47.042;8.292;2022-10-18T05:30:03;9.38;;;3.03;;
45420;SDS011;55462;47.042;8.292;2022-10-18T05:32:29;6.35;;;3.20;;
45420;SDS011;55462;47.042;8.292;2022-10-18T05:34:54;7.93;;;3.08;;
45420;SDS011;55462;47.042;8.292;2022-10-18T05:37:19;3.78;;;3.05;;
45420;SDS011;55462;47.042;8.292;2022-10-18T05:39:45;3.35;;;3.05;;
45420;SDS011;55462;47.042;8.292;2022-10-18T05:42:11;9.10;;;2.85;;
45420;SDS011;55462;47.042;8.292;2022-10-18T05:44:36;3.25;;;3.05;;
45420;SDS011;55462;47.042;8.292;2022-10-18T05:47:01;5.40;;;3.10;;
45420;SDS011;55462;47.042;8.292;2022-10-18T05:49:27;6.38;;;3.33;;
45420;SDS011;55462;47.042;8.292;2022-10-18T05:51:52;4.82;;;3.20;;
45420;SDS011;55462;47.042;8.292;2022-10-18T05:54:17;3.67;;;3.10;;
45420;SDS011;55462;47.042;8.292;2022-10-18T05:56:43;5.30;;;3.15;;
45420;SDS011;55462;47.042;8.292;2022-10-18T05:59:08;4.93;;;3.22;;
45420;SDS011;55462;47.042;8.292;2022-10-18T06:01:37;6.28;;;3.50;;
45420;SDS011;55462;47.042;8.292;2022-10-18T06:04:03;6.22;;;3.25;;
45420;SDS011;55462;47.042;8.292;2022-10-18T06:06:29;7.30;;;3.33;;
45420;SDS011;55462;47.042;8.292;2022-10-18T06:08:55;4.57;;;3.38;;
45420;SDS011;55462;47.042;8.292;2022-10-18T06:11:20;7.95;;;3.25;;
45420;SDS011;55462;47.042;8.292;2022-10-18T06:13:47;7.97;;;3.55;;
45420;SDS011;55462;47.042;8.292;2022-10-18T06:16:14;5.40;;;3.30;;
45420;SDS011;55462;47.042;8.292;2022-10-18T06:18:40;5.05;;;2.90;;
45420;SDS011;55462;47.042;8.292;2022-10-18T06:21:06;4.65;;;3.03;;
45420;SDS011;55462;47.042;8.292;2022-10-18T06:23:32;5.82;;;3.08;;
45420;SDS011;55462;47.042;8.292;2022-10-18T06:25:58;11.30;;;4.22;;
45420;SDS011;55462;47.042;8.292;2022-10-18T06:28:32;10.10;;;4.05;;
45420;SDS011;55462;47.042;8.292;2022-10-18T06:30:58;8.00;;;3.72;;
45420;SDS011;55462;47.042;8.292;2022-10-18T06:33:24;8.38;;;3.95;;
45420;SDS011;55462;47.042;8.292;2022-10-18T06:35:56;8.65;;;3.70;;
45420;SDS011;55462;47.042;8.292;2022-10-18T06:38:26;7.22;;;3.65;;
45420;SDS011;55462;47.042;8.292;2022-10-18T06:40:52;6.68;;;4.10;;
45420;SDS011;55462;47.042;8.292;2022-10-18T06:43:18;5.50;;;3.88;;
45420;SDS011;55462;47.042;8.292;2022-10-18T06:45:44;3.72;;;3.03;;
45420;SDS011;55462;47.042;8.292;2022-10-18T06:48:09;9.60;;;4.07;;
45420;SDS011;55462;47.042;8.292;2022-10-18T06:50:34;12.50;;;4.20;;
45420;SDS011;55462;47.042;8.292;2022-10-18T06:53:00;12.10;;;5.13;;
45420;SDS011;55462;47.042;8.292;2022-10-18T06:55:28;8.05;;;3.90;;
45420;SDS011;55462;47.042;8.292;2022-10-18T06:57:54;6.22;;;3.17;;
45420;SDS011;55462;47.042;8.292;2022-10-18T07:00:19;6.88;;;3.08;;
45420;SDS011;55462;47.042;8.292;2022-10-18T07:02:45;5.43;;;3.00;;
45420;SDS011;55462;47.042;8.292;2022-10-18T07:05:10;5.88;;;2.90;;
45420;SDS011;55462;47.042;8.292;2022-10-18T07:07:36;3.33;;;2.67;;
45420;SDS011;55462;47.042;8.292;2022-10-18T07:10:02;11.95;;;3.00;;
45420;SDS011;55462;47.042;8.292;2022-10-18T07:12:29;6.50;;;3.10;;
45420;SDS011;55462;47.042;8.292;2022-10-18T07:14:55;4.97;;;2.90;;
45420;SDS011;55462;47.042;8.292;2022-10-18T07:17:20;3.83;;;2.80;;
45420;SDS011;55462;47.042;8.292;2022-10-18T07:19:45;3.60;;;3.03;;
45420;SDS011;55462;47.042;8.292;2022-10-18T07:22:11;4.43;;;2.88;;
45420;SDS011;55462;47.042;8.292;2022-10-18T07:24:36;5.20;;;2.90;;
45420;SDS011;55462;47.042;8.292;2022-10-18T07:27:01;5.32;;;3.05;;
45420;SDS011;55462;47.042;8.292;2022-10-18T07:29:27;4.53;;;2.83;;
45420;SDS011;55462;47.042;8.292;2022-10-18T07:31:52;6.78;;;3.45;;
45420;SDS011;55462;47.042;8.292;2022-10-18T07:34:17;7.57;;;3.15;;
45420;SDS011;55462;47.042;8.292;2022-10-18T07:36:43;7.45;;;3.65;;
45420;SDS011;55462;47.042;8.292;2022-10-18T07:39:08;6.13;;;3.50;;
45420;SDS011;55462;47.042;8.292;2022-10-18T07:41:34;6.70;;;3.60;;
45420;SDS011;55462;47.042;8.292;2022-10-18T07:43:59;7.95;;;3.20;;
45420;SDS011;55462;47.042;8.292;2022-10-18T07:46:25;4.47;;;3.05;;
45420;SDS011;55462;47.042;8.292;2022-10-18T07:48:51;4.65;;;3.22;;
45420;SDS011;55462;47.042;8.292;2022-10-18T07:51:17;6.13;;;3.13;;
45420;SDS011;55462;47.042;8.292;2022-10-18T07:53:43;7.20;;;3.80;;
45420;SDS011;55462;47.042;8.292;2022-10-18T07:56:16;6.90;;;3.90;;
45420;SDS011;55462;47.042;8.292;2022-10-18T07:58:45;5.30;;;3.15;;
45420;SDS011;55462;47.042;8.292;2022-10-18T08:01:11;9.23;;;4.35;;
45420;SDS011;55462;47.042;8.292;2022-10-18T08:03:37;10.52;;;4.20;;
45420;SDS011;55462;47.042;8.292;2022-10-18T08:06:03;36.40;;;7.13;;
45420;SDS011;55462;47.042;8.292;2022-10-18T08:08:30;11.75;;;4.00;;
45420;SDS011;55462;47.042;8.292;2022-10-18T08:11:00;10.07;;;3.60;;
45420;SDS011;55462;47.042;8.292;2022-10-18T08:13:27;9.20;;;3.28;;
45420;SDS011;55462;47.042;8.292;2022-10-18T08:15:57;12.80;;;4.13;;
45420;SDS011;55462;47.042;8.292;2022-10-18T08:18:26;10.88;;;3.03;;
45420;SDS011;55462;47.042;8.292;2022-10-18T08:20:51;9.35;;;3.30;;
45420;SDS011;55462;47.042;8.292;2022-10-18T08:23:17;4.88;;;3.05;;
45420;SDS011;55462;47.042;8.292;2022-10-18T08:25:42;6.15;;;2.85;;
45420;SDS011;55462;47.042;8.292;2022-10-18T08:28:07;3.95;;;2.78;;
45420;SDS011;55462;47.042;8.292;2022-10-18T08:30:33;5.07;;;2.75;;
45420;SDS011;55462;47.042;8.292;2022-10-18T08:32:59;11.30;;;2.75;;
45420;SDS011;55462;47.042;8.292;2022-10-18T08:35:24;3.13;;;2.60;;
45420;SDS011;55462;47.042;8.292;2022-10-18T08:37:50;4.20;;;2.97;;
45420;SDS011;55462;47.042;8.292;2022-10-18T08:40:15;8.23;;;3.22;;
45420;SDS011;55462;47.042;8.292;2022-10-18T08:45:34;10.73;;;3.95;;
45420;SDS011;55462;47.042;8.292;2022-10-18T08:48:01;7.38;;;3.17;;
45420;SDS011;55462;47.042;8.292;2022-10-18T08:50:30;7.70;;;3.38;;
45420;SDS011;55462;47.042;8.292;2022-10-18T08:55:48;8.43;;;3.33;;
45420;SDS011;55462;47.042;8.292;2022-10-18T08:58:24;12.98;;;3.40;;
45420;SDS011;55462;47.042;8.292;2022-10-18T09:03:55;17.02;;;4.15;;
45420;SDS011;55462;47.042;8.292;2022-10-18T09:06:43;30.63;;;5.05;;
45420;SDS011;55462;47.042;8.292;2022-10-18T09:20:16;8.38;;;3.03;;
45420;SDS011;55462;47.042;8.292;2022-10-18T09:25:21;8.25;;;3.10;;
45420;SDS011;55462;47.042;8.292;2022-10-18T09:27:50;5.25;;;2.95;;
45420;SDS011;55462;47.042;8.292;2022-10-18T09:30:25;11.20;;;3.40;;
45420;SDS011;55462;47.042;8.292;2022-10-18T09:35:53;6.10;;;3.13;;
45420;SDS011;55462;47.042;8.292;2022-10-18T09:38:26;8.02;;;3.05;;
45420;SDS011;55462;47.042;8.292;2022-10-18T09:40:59;8.68;;;3.13;;
45420;SDS011;55462;47.042;8.292;2022-10-18T09:43:35;3.30;;;2.92;;
45420;SDS011;55462;47.042;8.292;2022-10-18T09:46:13;4.68;;;3.22;;
45420;SDS011;55462;47.042;8.292;2022-10-18T09:48:48;10.90;;;3.60;;
45420;SDS011;55462;47.042;8.292;2022-10-18T09:51:19;6.00;;;3.25;;
45420;SDS011;55462;47.042;8.292;2022-10-18T09:54:03;4.55;;;3.00;;
45420;SDS011;55462;47.042;8.292;2022-10-18T09:56:45;4.63;;;2.90;;
45420;SDS011;55462;47.042;8.292;2022-10-18T09:59:56;4.47;;;2.58;;
45420;SDS011;55462;47.042;8.292;2022-10-18T10:02:03;7.03;;;3.15;;
45420;SDS011;55462;47.042;8.292;2022-10-18T10:04:29;8.27;;;3.58;;
45420;SDS011;55462;47.042;8.292;2022-10-18T10:06:55;8.20;;;3.85;;
45420;SDS011;55462;47.042;8.292;2022-10-18T10:09:25;9.80;;;3.28;;
45420;SDS011;55462;47.042;8.292;2022-10-18T10:11:55;4.65;;;3.40;;
45420;SDS011;55462;47.042;8.292;2022-10-18T10:14:25;6.50;;;3.00;;
45420;SDS011;55462;47.042;8.292;2022-10-18T10:16:53;6.28;;;3.20;;
45420;SDS011;55462;47.042;8.292;2022-10-18T10:19:20;9.00;;;2.78;;
45420;SDS011;55462;47.042;8.292;2022-10-18T10:21:48;5.10;;;3.35;;
45420;SDS011;55462;47.042;8.292;2022-10-18T10:24:20;9.02;;;3.60;;
45420;SDS011;55462;47.042;8.292;2022-10-18T10:26:48;6.35;;;3.20;;
45420;SDS011;55462;47.042;8.292;2022-10-18T10:32:03;6.00;;;3.50;;
45420;SDS011;55462;47.042;8.292;2022-10-18T10:34:28;6.07;;;3.38;;
45420;SDS011;55462;47.042;8.292;2022-10-18T10:36:54;8.90;;;3.55;;
45420;SDS011;55462;47.042;8.292;2022-10-18T10:39:20;4.95;;;3.20;;
45420;SDS011;55462;47.042;8.292;2022-10-18T10:41:47;3.97;;;3.67;;
45420;SDS011;55462;47.042;8.292;2022-10-18T10:44:24;3.85;;;3.42;;
45420;SDS011;55462;47.042;8.292;2022-10-18T10:46:51;6.05;;;3.33;;
45420;SDS011;55462;47.042;8.292;2022-10-18T10:49:18;6.18;;;4.03;;
45420;SDS011;55462;47.042;8.292;2022-10-18T10:51:45;5.60;;;3.42;;
45420;SDS011;55462;47.042;8.292;2022-10-18T10:54:20;6.78;;;4.10;;
45420;SDS011;55462;47.042;8.292;2022-10-18T10:59:23;11.00;;;4.20;;
45420;SDS011;55462;47.042;8.292;2022-10-18T11:02:10;6.70;;;4.03;;
45420;SDS011;55462;47.042;8.292;2022-10-18T11:04:38;7.38;;;4.10;;
45420;SDS011;55462;47.042;8.292;2022-10-18T11:07:06;5.78;;;4.07;;
45420;SDS011;55462;47.042;8.292;2022-10-18T11:09:42;8.20;;;3.95;;
45420;SDS011;55462;47.042;8.292;2022-10-18T11:12:23;11.75;;;3.80;;
45420;SDS011;55462;47.042;8.292;2022-10-18T11:14:57;3.40;;;3.10;;
45420;SDS011;55462;47.042;8.292;2022-10-18T11:17:35;8.68;;;3.60;;
45420;SDS011;55462;47.042;8.292;2022-10-18T11:20:27;6.25;;;4.00;;
45420;SDS011;55462;47.042;8.292;2022-10-18T11:25:20;7.05;;;3.80;;
45420;SDS011;55462;47.042;8.292;2022-10-18T11:27:51;8.60;;;4.13;;
45420;SDS011;55462;47.042;8.292;2022-10-18T11:36:03;12.95;;;4.30;;
45420;SDS011;55462;47.042;8.292;2022-10-18T11:45:24;12.80;;;3.92;;
45420;SDS011;55462;47.042;8.292;2022-10-18T11:47:46;10.02;;;3.75;;
45420;SDS011;55462;47.042;8.292;2022-10-18T11:50:14;9.23;;;3.35;;
45420;SDS011;55462;47.042;8.292;2022-10-18T11:53:19;4.65;;;3.70;;
45420;SDS011;55462;47.042;8.292;2022-10-18T12:03:56;7.88;;;3.47;;
45420;SDS011;55462;47.042;8.292;2022-10-18T12:06:28;9.18;;;3.60;;
45420;SDS011;55462;47.042;8.292;2022-10-18T12:09:03;6.60;;;4.60;;
45420;SDS011;55462;47.042;8.292;2022-10-18T12:11:49;8.20;;;3.42;;
45420;SDS011;55462;47.042;8.292;2022-10-18T12:14:28;6.47;;;3.60;;
45420;SDS011;55462;47.042;8.292;2022-10-18T12:16:58;16.23;;;4.70;;
45420;SDS011;55462;47.042;8.292;2022-10-18T12:19:30;6.80;;;3.50;;
45420;SDS011;55462;47.042;8.292;2022-10-18T12:22:01;6.50;;;3.50;;
45420;SDS011;55462;47.042;8.292;2022-10-18T12:24:48;14.85;;;4.63;;
45420;SDS011;55462;47.042;8.292;2022-10-18T12:27:14;14.05;;;3.95;;
45420;SDS011;55462;47.042;8.292;2022-10-18T12:29:49;10.10;;;4.00;;
45420;SDS011;55462;47.042;8.292;2022-10-18T12:32:23;5.70;;;3.70;;
45420;SDS011;55462;47.042;8.292;2022-10-18T12:34:52;11.32;;;4.03;;
45420;SDS011;55462;47.042;8.292;2022-10-18T12:37:29;6.88;;;3.78;;
45420;SDS011;55462;47.042;8.292;2022-10-18T12:40:11;8.77;;;4.07;;
45420;SDS011;55462;47.042;8.292;2022-10-18T12:42:42;9.90;;;3.88;;
45420;SDS011;55462;47.042;8.292;2022-10-18T12:47:37;10.77;;;3.72;;
45420;SDS011;55462;47.042;8.292;2022-10-18T12:50:04;11.93;;;4.80;;
45420;SDS011;55462;47.042;8.292;2022-10-18T12:52:32;9.38;;;4.20;;
45420;SDS011;55462;47.042;8.292;2022-10-18T12:57:26;6.05;;;3.45;;
45420;SDS011;55462;47.042;8.292;2022-10-18T13:05:47;11.10;;;4.57;;
45420;SDS011;55462;47.042;8.292;2022-10-18T13:27:57;4.97;;;4.05;;
45420;SDS011;55462;47.042;8.292;2022-10-18T13:30:47;4.93;;;3.50;;
45420;SDS011;55462;47.042;8.292;2022-10-18T13:36:32;7.20;;;4.25;;
45420;SDS011;55462;47.042;8.292;2022-10-18T13:41:28;6.82;;;3.60;;
45420;SDS011;55462;47.042;8.292;2022-10-18T13:57:44;10.38;;;4.13;;
45420;SDS011;55462;47.042;8.292;2022-10-18T14:06:21;12.52;;;4.95;;
45420;SDS011;55462;47.042;8.292;2022-10-18T14:09:04;7.93;;;4.18;;
45420;SDS011;55462;47.042;8.292;2022-10-18T14:17:11;5.28;;;3.80;;
45420;SDS011;55462;47.042;8.292;2022-10-18T14:19:40;9.70;;;4.28;;
45420;SDS011;55462;47.042;8.292;2022-10-18T14:24:51;4.53;;;3.53;;
45420;SDS011;55462;47.042;8.292;2022-10-18T14:27:20;5.13;;;3.83;;
45420;SDS011;55462;47.042;8.292;2022-10-18T14:29:47;5.55;;;4.15;;
45420;SDS011;55462;47.042;8.292;2022-10-18T14:32:24;5.80;;;3.80;;
45420;SDS011;55462;47.042;8.292;2022-10-18T14:34:51;4.75;;;3.30;;
45420;SDS011;55462;47.042;8.292;2022-10-18T14:37:27;5.03;;;3.67;;
45420;SDS011;55462;47.042;8.292;2022-10-18T14:39:54;6.63;;;4.20;;
45420;SDS011;55462;47.042;8.292;2022-10-18T14:42:20;6.78;;;3.95;;
45420;SDS011;55462;47.042;8.292;2022-10-18T14:44:48;7.82;;;4.07;;
45420;SDS011;55462;47.042;8.292;2022-10-18T14:47:26;4.78;;;3.88;;
45420;SDS011;55462;47.042;8.292;2022-10-18T14:49:53;9.82;;;4.05;;
45420;SDS011;55462;47.042;8.292;2022-10-18T14:52:39;9.00;;;3.38;;
45420;SDS011;55462;47.042;8.292;2022-10-18T14:55:05;7.60;;;3.42;;
45420;SDS011;55462;47.042;8.292;2022-10-18T14:57:46;7.82;;;3.67;;
45420;SDS011;55462;47.042;8.292;2022-10-18T15:00:18;6.75;;;3.70;;
45420;SDS011;55462;47.042;8.292;2022-10-18T15:02:45;6.95;;;4.30;;
45420;SDS011;55462;47.042;8.292;2022-10-18T15:05:18;5.35;;;3.70;;
45420;SDS011;55462;47.042;8.292;2022-10-18T15:07:48;6.78;;;3.78;;
45420;SDS011;55462;47.042;8.292;2022-10-18T15:10:16;6.63;;;4.00;;
45420;SDS011;55462;47.042;8.292;2022-10-18T15:12:43;4.85;;;4.07;;
45420;SDS011;55462;47.042;8.292;2022-10-18T15:15:30;4.85;;;3.80;;
45420;SDS011;55462;47.042;8.292;2022-10-18T15:17:55;6.50;;;3.72;;
45420;SDS011;55462;47.042;8.292;2022-10-18T15:20:22;10.95;;;3.95;;
45420;SDS011;55462;47.042;8.292;2022-10-18T15:22:49;7.03;;;3.80;;
45420;SDS011;55462;47.042;8.292;2022-10-18T15:25:16;9.63;;;3.40;;
45420;SDS011;55462;47.042;8.292;2022-10-18T15:27:51;8.18;;;3.97;;
45420;SDS011;55462;47.042;8.292;2022-10-18T15:30:35;8.43;;;4.25;;
45420;SDS011;55462;47.042;8.292;2022-10-18T15:33:02;10.48;;;3.67;;
45420;SDS011;55462;47.042;8.292;2022-10-18T15:35:32;7.00;;;3.88;;
45420;SDS011;55462;47.042;8.292;2022-10-18T15:38:00;10.23;;;3.85;;
45420;SDS011;55462;47.042;8.292;2022-10-18T15:42:53;5.90;;;3.55;;
45420;SDS011;55462;47.042;8.292;2022-10-18T15:50:37;7.28;;;3.95;;
45420;SDS011;55462;47.042;8.292;2022-10-18T15:55:47;7.35;;;3.88;;
45420;SDS011;55462;47.042;8.292;2022-10-18T15:58:23;7.50;;;4.25;;
45420;SDS011;55462;47.042;8.292;2022-10-18T16:01:01;7.45;;;4.45;;
45420;SDS011;55462;47.042;8.292;2022-10-18T16:03:29;4.93;;;4.43;;
45420;SDS011;55462;47.042;8.292;2022-10-18T16:05:58;6.32;;;4.00;;
45420;SDS011;55462;47.042;8.292;2022-10-18T16:08:28;7.15;;;4.35;;
45420;SDS011;55462;47.042;8.292;2022-10-18T16:10:55;8.02;;;4.57;;
45420;SDS011;55462;47.042;8.292;2022-10-18T16:13:21;8.93;;;4.78;;
45420;SDS011;55462;47.042;8.292;2022-10-18T16:15:46;9.32;;;4.75;;
45420;SDS011;55462;47.042;8.292;2022-10-18T16:18:13;7.65;;;4.35;;
45420;SDS011;55462;47.042;8.292;2022-10-18T16:20:39;8.00;;;4.53;;
45420;SDS011;55462;47.042;8.292;2022-10-18T16:23:09;7.25;;;4.55;;
45420;SDS011;55462;47.042;8.292;2022-10-18T16:25:41;6.53;;;4.32;;
45420;SDS011;55462;47.042;8.292;2022-10-18T16:28:08;7.07;;;4.65;;
45420;SDS011;55462;47.042;8.292;2022-10-18T16:30:37;13.38;;;4.88;;
45420;SDS011;55462;47.042;8.292;2022-10-18T16:33:02;12.50;;;4.63;;
45420;SDS011;55462;47.042;8.292;2022-10-18T16:35:28;7.20;;;4.75;;
45420;SDS011;55462;47.042;8.292;2022-10-18T16:37:53;8.70;;;4.50;;
45420;SDS011;55462;47.042;8.292;2022-10-18T16:40:23;10.88;;;5.10;;
45420;SDS011;55462;47.042;8.292;2022-10-18T16:42:50;8.75;;;5.30;;
45420;SDS011;55462;47.042;8.292;2022-10-18T16:45:15;6.30;;;3.97;;
45420;SDS011;55462;47.042;8.292;2022-10-18T16:47:41;8.98;;;4.38;;
45420;SDS011;55462;47.042;8.292;2022-10-18T16:50:09;8.32;;;4.18;;
45420;SDS011;55462;47.042;8.292;2022-10-18T16:52:37;6.50;;;4.18;;
45420;SDS011;55462;47.042;8.292;2022-10-18T16:55:02;5.70;;;4.18;;
45420;SDS011;55462;47.042;8.292;2022-10-18T16:57:28;6.38;;;4.03;;
45420;SDS011;55462;47.042;8.292;2022-10-18T16:59:53;6.93;;;4.13;;
45420;SDS011;55462;47.042;8.292;2022-10-18T17:02:19;13.63;;;4.65;;
45420;SDS011;55462;47.042;8.292;2022-10-18T17:04:44;6.18;;;4.05;;
45420;SDS011;55462;47.042;8.292;2022-10-18T17:07:11;6.13;;;4.00;;
45420;SDS011;55462;47.042;8.292;2022-10-18T17:09:47;9.30;;;4.13;;
45420;SDS011;55462;47.042;8.292;2022-10-18T17:12:12;6.50;;;4.35;;
45420;SDS011;55462;47.042;8.292;2022-10-18T17:14:38;7.43;;;4.32;;
45420;SDS011;55462;47.042;8.292;2022-10-18T17:17:03;7.53;;;4.55;;
45420;SDS011;55462;47.042;8.292;2022-10-18T17:19:28;6.97;;;4.38;;
45420;SDS011;55462;47.042;8.292;2022-10-18T17:21:54;9.85;;;4.53;;
45420;SDS011;55462;47.042;8.292;2022-10-18T17:24:19;8.05;;;4.40;;
45420;SDS011;55462;47.042;8.292;2022-10-18T17:26:44;9.07;;;4.28;;
45420;SDS011;55462;47.042;8.292;2022-10-18T17:29:09;4.57;;;4.13;;
45420;SDS011;55462;47.042;8.292;2022-10-18T17:31:35;5.88;;;4.25;;
45420;SDS011;55462;47.042;8.292;2022-10-18T17:34:00;6.93;;;4.00;;
45420;SDS011;55462;47.042;8.292;2022-10-18T17:36:26;4.82;;;3.70;;
45420;SDS011;55462;47.042;8.292;2022-10-18T17:38:52;6.35;;;4.82;;